sensor_id;sensor_type;location;lat;lon;timestamp;temperature;humidity
67547;HTU21D;54381;53.516;49.424;2022-08-18T00:01:45;19.38;57.65
67547;HTU21D;54381;53.516;49.424;2022-08-18T00:04:14;19.47;57.99
67547;HTU21D;54381;53.516;49.424;2022-08-18T00:06:40;19.38;57.78
67547;HTU21D;54381;53.516;49.424;2022-08-18T00:09:08;19.16;58.30
67547;HTU21D;54381;53.516;49.424;2022-08-18T00:11:38;18.98;59.06
67547;HTU21D;54381;53.516;49.424;2022-08-18T00:14:06;18.88;59.61
67547;HTU21D;54381;53.516;49.424;2022-08-18T00:16:32;18.82;59.29
67547;HTU21D;54381;53.516;49.424;2022-08-18T00:18:58;18.94;58.64
67547;HTU21D;54381;53.516;49.424;2022-08-18T00:21:25;18.96;59.08
67547;HTU21D;54381;53.516;49.424;2022-08-18T00:23:52;19.30;57.64
67547;HTU21D;54381;53.516;49.424;2022-08-18T00:26:18;19.25;57.63
67547;HTU21D;54381;53.516;49.424;2022-08-18T00:28:45;19.07;58.03
67547;HTU21D;54381;53.516;49.424;2022-08-18T00:31:11;18.88;58.83
67547;HTU21D;54381;53.516;49.424;2022-08-18T00:33:37;18.93;58.52
67547;HTU21D;54381;53.516;49.424;2022-08-18T00:36:03;18.94;58.80
67547;HTU21D;54381;53.516;49.424;2022-08-18T00:38:30;19.06;57.72
67547;HTU21D;54381;53.516;49.424;2022-08-18T00:40:56;19.06;57.89
67547;HTU21D;54381;53.516;49.424;2022-08-18T00:43:40;18.82;58.76
67547;HTU21D;54381;53.516;49.424;2022-08-18T00:46:28;19.06;57.42
67547;HTU21D;54381;53.516;49.424;2022-08-18T00:48:56;18.95;58.61
67547;HTU21D;54381;53.516;49.424;2022-08-18T00:56:45;18.91;59.74
67547;HTU21D;54381;53.516;49.424;2022-08-18T00:59:23;18.85;59.16
67547;HTU21D;54381;53.516;49.424;2022-08-18T01:01:53;18.73;58.60
67547;HTU21D;54381;53.516;49.424;2022-08-18T01:04:29;18.79;59.48
67547;HTU21D;54381;53.516;49.424;2022-08-18T01:07:06;18.84;58.62
67547;HTU21D;54381;53.516;49.424;2022-08-18T01:09:33;18.88;57.92
67547;HTU21D;54381;53.516;49.424;2022-08-18T01:11:59;18.91;57.84
67547;HTU21D;54381;53.516;49.424;2022-08-18T01:14:26;18.66;58.91
67547;HTU21D;54381;53.516;49.424;2022-08-18T01:16:52;18.55;58.83
67547;HTU21D;54381;53.516;49.424;2022-08-18T01:19:37;18.95;57.51
67547;HTU21D;54381;53.516;49.424;2022-08-18T01:22:25;18.87;56.85
67547;HTU21D;54381;53.516;49.424;2022-08-18T01:24:55;18.62;58.37
67547;HTU21D;54381;53.516;49.424;2022-08-18T01:27:41;18.64;57.43
67547;HTU21D;54381;53.516;49.424;2022-08-18T01:30:12;18.56;60.01
67547;HTU21D;54381;53.516;49.424;2022-08-18T01:32:39;18.93;57.37
67547;HTU21D;54381;53.516;49.424;2022-08-18T01:35:09;18.86;56.82
67547;HTU21D;54381;53.516;49.424;2022-08-18T01:37:36;19.12;56.14
67547;HTU21D;54381;53.516;49.424;2022-08-18T01:40:05;19.31;55.98
67547;HTU21D;54381;53.516;49.424;2022-08-18T01:42:32;19.20;55.54
67547;HTU21D;54381;53.516;49.424;2022-08-18T01:44:59;18.95;56.03
67547;HTU21D;54381;53.516;49.424;2022-08-18T01:47:28;18.86;56.52
67547;HTU21D;54381;53.516;49.424;2022-08-18T01:49:56;18.70;57.19
67547;HTU21D;54381;53.516;49.424;2022-08-18T01:52:23;18.83;56.14
67547;HTU21D;54381;53.516;49.424;2022-08-18T01:54:50;18.82;56.96
67547;HTU21D;54381;53.516;49.424;2022-08-18T01:57:26;19.12;54.49
67547;HTU21D;54381;53.516;49.424;2022-08-18T01:59:52;19.24;56.30
67547;HTU21D;54381;53.516;49.424;2022-08-18T02:02:24;19.48;54.84
67547;HTU21D;54381;53.516;49.424;2022-08-18T02:04:54;19.39;53.85
67547;HTU21D;54381;53.516;49.424;2022-08-18T02:07:24;19.05;54.99
67547;HTU21D;54381;53.516;49.424;2022-08-18T02:09:50;18.98;54.59
67547;HTU21D;54381;53.516;49.424;2022-08-18T02:12:16;18.81;54.91
67547;HTU21D;54381;53.516;49.424;2022-08-18T02:14:42;18.93;54.68
67547;HTU21D;54381;53.516;49.424;2022-08-18T02:17:10;18.80;54.78
67547;HTU21D;54381;53.516;49.424;2022-08-18T02:19:41;18.88;54.38
67547;HTU21D;54381;53.516;49.424;2022-08-18T02:22:10;18.93;54.68
67547;HTU21D;54381;53.516;49.424;2022-08-18T02:24:37;18.95;54.46
67547;HTU21D;54381;53.516;49.424;2022-08-18T02:27:04;18.94;53.43
67547;HTU21D;54381;53.516;49.424;2022-08-18T02:29:30;19.13;52.97
67547;HTU21D;54381;53.516;49.424;2022-08-18T02:31:56;19.23;53.27
67547;HTU21D;54381;53.516;49.424;2022-08-18T02:34:22;19.22;53.16
67547;HTU21D;54381;53.516;49.424;2022-08-18T02:36:48;19.44;52.20
67547;HTU21D;54381;53.516;49.424;2022-08-18T02:39:14;19.51;52.05
67547;HTU21D;54381;53.516;49.424;2022-08-18T02:41:41;19.70;52.17
67547;HTU21D;54381;53.516;49.424;2022-08-18T02:44:07;19.85;50.63
67547;HTU21D;54381;53.516;49.424;2022-08-18T02:46:34;19.77;51.23
67547;HTU21D;54381;53.516;49.424;2022-08-18T02:49:01;19.92;50.36
67547;HTU21D;54381;53.516;49.424;2022-08-18T02:51:27;19.76;50.76
67547;HTU21D;54381;53.516;49.424;2022-08-18T02:53:54;19.87;50.63
67547;HTU21D;54381;53.516;49.424;2022-08-18T02:56:27;20.39;48.28
67547;HTU21D;54381;53.516;49.424;2022-08-18T02:59:05;20.53;47.98
67547;HTU21D;54381;53.516;49.424;2022-08-18T03:01:34;20.31;48.12
67547;HTU21D;54381;53.516;49.424;2022-08-18T03:04:02;19.97;49.32
67547;HTU21D;54381;53.516;49.424;2022-08-18T03:06:32;20.07;48.93
67547;HTU21D;54381;53.516;49.424;2022-08-18T03:08:58;20.10;49.27
67547;HTU21D;54381;53.516;49.424;2022-08-18T03:11:27;20.16;48.95
67547;HTU21D;54381;53.516;49.424;2022-08-18T03:13:54;20.42;48.08
67547;HTU21D;54381;53.516;49.424;2022-08-18T03:16:22;20.42;48.38
67547;HTU21D;54381;53.516;49.424;2022-08-18T03:18:50;20.90;46.64
67547;HTU21D;54381;53.516;49.424;2022-08-18T03:21:19;20.70;47.97
67547;HTU21D;54381;53.516;49.424;2022-08-18T03:23:47;20.56;47.94
67547;HTU21D;54381;53.516;49.424;2022-08-18T03:26:14;20.65;46.89
67547;HTU21D;54381;53.516;49.424;2022-08-18T03:28:43;21.13;46.27
67547;HTU21D;54381;53.516;49.424;2022-08-18T03:31:11;21.72;44.50
67547;HTU21D;54381;53.516;49.424;2022-08-18T03:33:40;21.55;45.45
67547;HTU21D;54381;53.516;49.424;2022-08-18T03:36:10;21.48;45.25
67547;HTU21D;54381;53.516;49.424;2022-08-18T03:38:40;22.43;43.38
67547;HTU21D;54381;53.516;49.424;2022-08-18T03:41:09;22.72;41.10
67547;HTU21D;54381;53.516;49.424;2022-08-18T03:43:36;22.46;41.92
67547;HTU21D;54381;53.516;49.424;2022-08-18T03:46:07;22.32;42.53
67547;HTU21D;54381;53.516;49.424;2022-08-18T03:48:37;21.94;43.51
67547;HTU21D;54381;53.516;49.424;2022-08-18T03:51:10;22.17;42.29
67547;HTU21D;54381;53.516;49.424;2022-08-18T03:53:38;22.51;41.38
67547;HTU21D;54381;53.516;49.424;2022-08-18T03:56:10;22.94;40.20
67547;HTU21D;54381;53.516;49.424;2022-08-18T03:58:45;22.42;40.78
67547;HTU21D;54381;53.516;49.424;2022-08-18T04:01:13;21.99;42.50
67547;HTU21D;54381;53.516;49.424;2022-08-18T04:03:44;21.49;43.80
67547;HTU21D;54381;53.516;49.424;2022-08-18T04:06:18;21.82;43.91
67547;HTU21D;54381;53.516;49.424;2022-08-18T04:08:45;22.21;42.29
67547;HTU21D;54381;53.516;49.424;2022-08-18T04:11:12;22.04;42.07
67547;HTU21D;54381;53.516;49.424;2022-08-18T04:13:39;22.31;42.14
67547;HTU21D;54381;53.516;49.424;2022-08-18T04:16:06;22.25;41.89
67547;HTU21D;54381;53.516;49.424;2022-08-18T04:18:32;22.46;41.98
67547;HTU21D;54381;53.516;49.424;2022-08-18T04:21:03;22.61;41.04
67547;HTU21D;54381;53.516;49.424;2022-08-18T04:23:33;22.80;40.43
67547;HTU21D;54381;53.516;49.424;2022-08-18T04:26:00;23.06;40.50
67547;HTU21D;54381;53.516;49.424;2022-08-18T04:28:28;23.55;38.52
67547;HTU21D;54381;53.516;49.424;2022-08-18T04:30:55;23.34;39.22
67547;HTU21D;54381;53.516;49.424;2022-08-18T04:33:25;23.15;39.81
67547;HTU21D;54381;53.516;49.424;2022-08-18T04:35:53;22.92;41.18
67547;HTU21D;54381;53.516;49.424;2022-08-18T04:38:20;22.56;41.29
67547;HTU21D;54381;53.516;49.424;2022-08-18T04:40:46;22.31;42.00
67547;HTU21D;54381;53.516;49.424;2022-08-18T04:43:13;22.21;42.71
67547;HTU21D;54381;53.516;49.424;2022-08-18T04:45:46;22.22;42.39
67547;HTU21D;54381;53.516;49.424;2022-08-18T04:48:13;22.31;42.29
67547;HTU21D;54381;53.516;49.424;2022-08-18T04:50:41;22.41;42.26
67547;HTU21D;54381;53.516;49.424;2022-08-18T04:53:08;22.77;41.54
67547;HTU21D;54381;53.516;49.424;2022-08-18T04:55:54;23.34;40.35
67547;HTU21D;54381;53.516;49.424;2022-08-18T04:58:22;23.39;40.31
67547;HTU21D;54381;53.516;49.424;2022-08-18T05:01:00;23.88;38.92
67547;HTU21D;54381;53.516;49.424;2022-08-18T05:03:26;24.11;38.69
67547;HTU21D;54381;53.516;49.424;2022-08-18T05:05:54;24.49;37.69
67547;HTU21D;54381;53.516;49.424;2022-08-18T05:08:20;23.99;38.65
67547;HTU21D;54381;53.516;49.424;2022-08-18T05:10:51;24.32;38.34
67547;HTU21D;54381;53.516;49.424;2022-08-18T05:13:18;24.08;39.15
67547;HTU21D;54381;53.516;49.424;2022-08-18T05:15:57;24.10;39.07
67547;HTU21D;54381;53.516;49.424;2022-08-18T05:18:30;24.58;38.59
67547;HTU21D;54381;53.516;49.424;2022-08-18T05:20:57;24.43;38.88
67547;HTU21D;54381;53.516;49.424;2022-08-18T05:23:23;24.61;37.56
67547;HTU21D;54381;53.516;49.424;2022-08-18T05:25:49;24.05;39.34
67547;HTU21D;54381;53.516;49.424;2022-08-18T05:28:21;23.83;39.27
67547;HTU21D;54381;53.516;49.424;2022-08-18T05:30:47;23.99;38.87
67547;HTU21D;54381;53.516;49.424;2022-08-18T05:33:13;24.28;37.26
67547;HTU21D;54381;53.516;49.424;2022-08-18T05:35:46;24.44;37.64
67547;HTU21D;54381;53.516;49.424;2022-08-18T05:39:12;25.45;35.37
67547;HTU21D;54381;53.516;49.424;2022-08-18T05:41:28;26.21;33.73
67547;HTU21D;54381;53.516;49.424;2022-08-18T05:43:56;26.50;33.76
67547;HTU21D;54381;53.516;49.424;2022-08-18T05:46:53;27.29;31.93
67547;HTU21D;54381;53.516;49.424;2022-08-18T05:49:20;28.23;28.79
67547;HTU21D;54381;53.516;49.424;2022-08-18T05:51:59;27.96;29.86
67547;HTU21D;54381;53.516;49.424;2022-08-18T05:54:34;28.47;30.01
67547;HTU21D;54381;53.516;49.424;2022-08-18T05:57:20;29.70;27.05
67547;HTU21D;54381;53.516;49.424;2022-08-18T05:59:51;29.78;26.81
67547;HTU21D;54381;53.516;49.424;2022-08-18T06:03:12;29.72;26.97
67547;HTU21D;54381;53.516;49.424;2022-08-18T06:05:52;29.87;26.95
67547;HTU21D;54381;53.516;49.424;2022-08-18T06:08:21;30.34;25.07
67547;HTU21D;54381;53.516;49.424;2022-08-18T06:10:49;30.46;25.67
67547;HTU21D;54381;53.516;49.424;2022-08-18T06:13:16;30.57;25.95
67547;HTU21D;54381;53.516;49.424;2022-08-18T06:16:03;29.44;27.65
67547;HTU21D;54381;53.516;49.424;2022-08-18T06:35:48;30.61;24.56
67547;HTU21D;54381;53.516;49.424;2022-08-18T06:38:46;31.36;23.71
67547;HTU21D;54381;53.516;49.424;2022-08-18T06:46:31;32.47;21.91
67547;HTU21D;54381;53.516;49.424;2022-08-18T06:49:07;30.53;25.22
67547;HTU21D;54381;53.516;49.424;2022-08-18T06:51:35;30.33;25.68
67547;HTU21D;54381;53.516;49.424;2022-08-18T06:56:44;30.42;24.82
67547;HTU21D;54381;53.516;49.424;2022-08-18T07:01:49;29.63;26.63
67547;HTU21D;54381;53.516;49.424;2022-08-18T07:04:39;28.68;28.46
67547;HTU21D;54381;53.516;49.424;2022-08-18T07:07:39;28.00;29.61
67547;HTU21D;54381;53.516;49.424;2022-08-18T07:10:28;27.43;30.11
67547;HTU21D;54381;53.516;49.424;2022-08-18T07:13:06;27.29;30.77
67547;HTU21D;54381;53.516;49.424;2022-08-18T07:15:32;28.58;28.97
67547;HTU21D;54381;53.516;49.424;2022-08-18T07:18:04;28.72;27.82
67547;HTU21D;54381;53.516;49.424;2022-08-18T07:20:46;28.84;27.69
67547;HTU21D;54381;53.516;49.424;2022-08-18T07:23:33;29.79;26.33
67547;HTU21D;54381;53.516;49.424;2022-08-18T07:26:10;30.44;25.04
67547;HTU21D;54381;53.516;49.424;2022-08-18T07:36:53;29.18;26.73
67547;HTU21D;54381;53.516;49.424;2022-08-18T07:42:51;28.03;29.71
67547;HTU21D;54381;53.516;49.424;2022-08-18T07:45:23;30.16;26.42
67547;HTU21D;54381;53.516;49.424;2022-08-18T07:48:29;31.35;23.98
67547;HTU21D;54381;53.516;49.424;2022-08-18T07:51:10;31.55;23.55
67547;HTU21D;54381;53.516;49.424;2022-08-18T07:59:26;30.07;25.75
67547;HTU21D;54381;53.516;49.424;2022-08-18T08:07:11;29.05;28.26
67547;HTU21D;54381;53.516;49.424;2022-08-18T08:12:35;31.64;24.57
67547;HTU21D;54381;53.516;49.424;2022-08-18T08:28:51;30.46;25.43
67547;HTU21D;54381;53.516;49.424;2022-08-18T08:33:50;28.65;28.32
67547;HTU21D;54381;53.516;49.424;2022-08-18T08:36:24;28.04;29.84
67547;HTU21D;54381;53.516;49.424;2022-08-18T08:39:20;27.27;30.55
67547;HTU21D;54381;53.516;49.424;2022-08-18T08:42:07;27.07;31.07
67547;HTU21D;54381;53.516;49.424;2022-08-18T08:44:36;27.25;31.68
67547;HTU21D;54381;53.516;49.424;2022-08-18T08:47:18;27.96;30.90
67547;HTU21D;54381;53.516;49.424;2022-08-18T08:50:32;27.96;30.25
67547;HTU21D;54381;53.516;49.424;2022-08-18T08:52:49;28.02;30.71
67547;HTU21D;54381;53.516;49.424;2022-08-18T08:55:22;27.94;30.50
67547;HTU21D;54381;53.516;49.424;2022-08-18T08:58:15;27.87;30.23
67547;HTU21D;54381;53.516;49.424;2022-08-18T09:00:44;28.17;30.32
67547;HTU21D;54381;53.516;49.424;2022-08-18T09:05:45;27.86;31.15
67547;HTU21D;54381;53.516;49.424;2022-08-18T09:08:35;28.09;30.94
67547;HTU21D;54381;53.516;49.424;2022-08-18T09:19:48;27.30;31.86
67547;HTU21D;54381;53.516;49.424;2022-08-18T09:22:46;27.70;31.52
67547;HTU21D;54381;53.516;49.424;2022-08-18T09:28:22;27.67;31.26
67547;HTU21D;54381;53.516;49.424;2022-08-18T09:38:54;27.41;31.97
67547;HTU21D;54381;53.516;49.424;2022-08-18T09:42:02;27.39;32.01
67547;HTU21D;54381;53.516;49.424;2022-08-18T10:06:41;27.78;31.66
67547;HTU21D;54381;53.516;49.424;2022-08-18T10:15:00;27.89;32.30
67547;HTU21D;54381;53.516;49.424;2022-08-18T10:22:57;28.03;32.21
67547;HTU21D;54381;53.516;49.424;2022-08-18T10:25:36;28.10;32.09
67547;HTU21D;54381;53.516;49.424;2022-08-18T10:28:08;27.90;32.15
67547;HTU21D;54381;53.516;49.424;2022-08-18T10:33:05;27.74;32.82
67547;HTU21D;54381;53.516;49.424;2022-08-18T10:38:25;28.40;32.41
67547;HTU21D;54381;53.516;49.424;2022-08-18T10:41:02;28.17;32.00
67547;HTU21D;54381;53.516;49.424;2022-08-18T10:43:42;28.37;32.35
67547;HTU21D;54381;53.516;49.424;2022-08-18T10:46:25;28.41;31.80
67547;HTU21D;54381;53.516;49.424;2022-08-18T10:49:24;28.25;32.20
67547;HTU21D;54381;53.516;49.424;2022-08-18T10:51:52;27.81;32.70
67547;HTU21D;54381;53.516;49.424;2022-08-18T11:00:19;27.78;33.25
67547;HTU21D;54381;53.516;49.424;2022-08-18T11:05:36;27.76;33.01
67547;HTU21D;54381;53.516;49.424;2022-08-18T11:08:13;27.84;33.05
67547;HTU21D;54381;53.516;49.424;2022-08-18T11:10:43;27.89;33.22
67547;HTU21D;54381;53.516;49.424;2022-08-18T11:13:18;27.95;32.79
67547;HTU21D;54381;53.516;49.424;2022-08-18T11:18:35;27.82;33.66
67547;HTU21D;54381;53.516;49.424;2022-08-18T11:21:40;27.61;33.51
67547;HTU21D;54381;53.516;49.424;2022-08-18T11:24:17;27.53;33.64
67547;HTU21D;54381;53.516;49.424;2022-08-18T11:29:27;27.46;33.70
67547;HTU21D;54381;53.516;49.424;2022-08-18T11:32:10;27.37;34.48
67547;HTU21D;54381;53.516;49.424;2022-08-18T11:34:44;27.32;35.11
67547;HTU21D;54381;53.516;49.424;2022-08-18T11:37:22;27.35;35.10
67547;HTU21D;54381;53.516;49.424;2022-08-18T11:39:50;27.27;34.70
67547;HTU21D;54381;53.516;49.424;2022-08-18T11:42:18;27.21;34.89
67547;HTU21D;54381;53.516;49.424;2022-08-18T11:44:45;27.27;34.92
67547;HTU21D;54381;53.516;49.424;2022-08-18T11:47:17;27.31;35.15
67547;HTU21D;54381;53.516;49.424;2022-08-18T11:50:04;27.35;34.90
67547;HTU21D;54381;53.516;49.424;2022-08-18T11:52:46;27.32;34.94
67547;HTU21D;54381;53.516;49.424;2022-08-18T11:55:20;27.38;34.72
67547;HTU21D;54381;53.516;49.424;2022-08-18T11:57:56;27.37;34.63
67547;HTU21D;54381;53.516;49.424;2022-08-18T12:05:48;27.37;34.83
67547;HTU21D;54381;53.516;49.424;2022-08-18T12:08:21;27.41;34.32
67547;HTU21D;54381;53.516;49.424;2022-08-18T12:11:00;27.23;34.78
67547;HTU21D;54381;53.516;49.424;2022-08-18T12:13:28;27.21;34.60
67547;HTU21D;54381;53.516;49.424;2022-08-18T12:16:09;27.23;35.00
67547;HTU21D;54381;53.516;49.424;2022-08-18T12:18:36;27.15;35.24
67547;HTU21D;54381;53.516;49.424;2022-08-18T12:21:02;27.19;34.91
67547;HTU21D;54381;53.516;49.424;2022-08-18T12:23:30;27.30;35.31
67547;HTU21D;54381;53.516;49.424;2022-08-18T12:25:56;27.27;34.83
67547;HTU21D;54381;53.516;49.424;2022-08-18T12:28:22;27.31;35.05
67547;HTU21D;54381;53.516;49.424;2022-08-18T12:30:48;27.43;34.84
67547;HTU21D;54381;53.516;49.424;2022-08-18T12:33:15;27.42;35.67
67547;HTU21D;54381;53.516;49.424;2022-08-18T12:35:41;27.38;35.95
67547;HTU21D;54381;53.516;49.424;2022-08-18T12:38:09;27.39;35.09
67547;HTU21D;54381;53.516;49.424;2022-08-18T12:40:37;27.37;35.66
67547;HTU21D;54381;53.516;49.424;2022-08-18T12:43:03;27.50;35.60
67547;HTU21D;54381;53.516;49.424;2022-08-18T12:45:29;27.51;35.30
67547;HTU21D;54381;53.516;49.424;2022-08-18T12:47:58;27.39;34.99
67547;HTU21D;54381;53.516;49.424;2022-08-18T12:50:27;27.37;34.88
67547;HTU21D;54381;53.516;49.424;2022-08-18T12:52:53;27.36;35.03
67547;HTU21D;54381;53.516;49.424;2022-08-18T12:55:19;27.34;35.58
67547;HTU21D;54381;53.516;49.424;2022-08-18T12:57:45;27.34;35.37
67547;HTU21D;54381;53.516;49.424;2022-08-18T13:00:12;27.26;35.56
67547;HTU21D;54381;53.516;49.424;2022-08-18T13:02:38;27.17;35.66
67547;HTU21D;54381;53.516;49.424;2022-08-18T13:05:06;27.19;35.34
67547;HTU21D;54381;53.516;49.424;2022-08-18T13:07:32;27.14;35.51
67547;HTU21D;54381;53.516;49.424;2022-08-18T13:09:58;27.01;35.41
67547;HTU21D;54381;53.516;49.424;2022-08-18T13:12:24;26.97;35.45
67547;HTU21D;54381;53.516;49.424;2022-08-18T13:14:50;26.96;36.02
67547;HTU21D;54381;53.516;49.424;2022-08-18T13:17:19;26.96;35.76
67547;HTU21D;54381;53.516;49.424;2022-08-18T13:19:46;27.04;36.20
67547;HTU21D;54381;53.516;49.424;2022-08-18T13:22:12;26.91;35.28
67547;HTU21D;54381;53.516;49.424;2022-08-18T13:24:38;26.81;35.90
67547;HTU21D;54381;53.516;49.424;2022-08-18T13:27:04;26.83;36.05
67547;HTU21D;54381;53.516;49.424;2022-08-18T13:29:31;26.82;35.92
67547;HTU21D;54381;53.516;49.424;2022-08-18T13:31:57;26.82;36.37
67547;HTU21D;54381;53.516;49.424;2022-08-18T13:34:26;26.82;36.27
67547;HTU21D;54381;53.516;49.424;2022-08-18T13:36:53;26.81;36.47
67547;HTU21D;54381;53.516;49.424;2022-08-18T13:39:23;26.77;36.53
67547;HTU21D;54381;53.516;49.424;2022-08-18T13:41:51;26.71;36.56
67547;HTU21D;54381;53.516;49.424;2022-08-18T13:44:19;26.66;37.11
67547;HTU21D;54381;53.516;49.424;2022-08-18T13:46:48;26.61;37.21
67547;HTU21D;54381;53.516;49.424;2022-08-18T13:49:16;26.64;37.07
67547;HTU21D;54381;53.516;49.424;2022-08-18T13:51:44;26.66;36.62
67547;HTU21D;54381;53.516;49.424;2022-08-18T13:54:25;26.62;37.33
67547;HTU21D;54381;53.516;49.424;2022-08-18T13:56:51;26.61;37.24
67547;HTU21D;54381;53.516;49.424;2022-08-18T13:59:19;26.53;37.48
67547;HTU21D;54381;53.516;49.424;2022-08-18T14:01:50;26.47;37.42
67547;HTU21D;54381;53.516;49.424;2022-08-18T14:04:16;26.46;37.73
67547;HTU21D;54381;53.516;49.424;2022-08-18T14:06:43;26.43;37.99
67547;HTU21D;54381;53.516;49.424;2022-08-18T14:09:09;26.40;38.24
67547;HTU21D;54381;53.516;49.424;2022-08-18T14:11:36;26.41;37.41
67547;HTU21D;54381;53.516;49.424;2022-08-18T14:14:03;26.39;37.65
67547;HTU21D;54381;53.516;49.424;2022-08-18T14:16:30;26.32;37.84
67547;HTU21D;54381;53.516;49.424;2022-08-18T14:18:57;26.32;38.10
67547;HTU21D;54381;53.516;49.424;2022-08-18T14:21:44;26.34;37.86
67547;HTU21D;54381;53.516;49.424;2022-08-18T14:24:31;26.28;38.24
67547;HTU21D;54381;53.516;49.424;2022-08-18T14:27:17;26.20;38.73
67547;HTU21D;54381;53.516;49.424;2022-08-18T14:29:44;26.13;39.10
67547;HTU21D;54381;53.516;49.424;2022-08-18T14:32:12;26.10;39.27
67547;HTU21D;54381;53.516;49.424;2022-08-18T14:34:39;26.07;39.33
67547;HTU21D;54381;53.516;49.424;2022-08-18T14:37:05;26.05;39.50
67547;HTU21D;54381;53.516;49.424;2022-08-18T14:39:32;25.99;39.67
67547;HTU21D;54381;53.516;49.424;2022-08-18T14:41:58;25.99;40.01
67547;HTU21D;54381;53.516;49.424;2022-08-18T14:44:24;25.93;40.02
67547;HTU21D;54381;53.516;49.424;2022-08-18T14:46:50;25.87;40.15
67547;HTU21D;54381;53.516;49.424;2022-08-18T14:49:17;25.81;40.42
67547;HTU21D;54381;53.516;49.424;2022-08-18T14:51:43;25.81;40.50
67547;HTU21D;54381;53.516;49.424;2022-08-18T14:54:09;25.78;40.86
67547;HTU21D;54381;53.516;49.424;2022-08-18T14:56:36;25.77;40.95
67547;HTU21D;54381;53.516;49.424;2022-08-18T14:59:04;25.71;41.16
67547;HTU21D;54381;53.516;49.424;2022-08-18T15:01:36;25.62;41.56
67547;HTU21D;54381;53.516;49.424;2022-08-18T15:04:03;25.58;41.48
67547;HTU21D;54381;53.516;49.424;2022-08-18T15:06:29;25.56;41.76
67547;HTU21D;54381;53.516;49.424;2022-08-18T15:08:55;25.52;41.89
67547;HTU21D;54381;53.516;49.424;2022-08-18T15:11:22;25.45;41.90
67547;HTU21D;54381;53.516;49.424;2022-08-18T15:13:48;25.39;42.32
67547;HTU21D;54381;53.516;49.424;2022-08-18T15:16:15;25.35;42.47
67547;HTU21D;54381;53.516;49.424;2022-08-18T15:18:43;25.32;42.40
67547;HTU21D;54381;53.516;49.424;2022-08-18T15:21:10;25.27;42.68
67547;HTU21D;54381;53.516;49.424;2022-08-18T15:23:56;25.22;42.66
67547;HTU21D;54381;53.516;49.424;2022-08-18T15:26:40;25.17;42.95
67547;HTU21D;54381;53.516;49.424;2022-08-18T15:29:09;25.17;42.91
67547;HTU21D;54381;53.516;49.424;2022-08-18T15:31:36;25.15;43.06
67547;HTU21D;54381;53.516;49.424;2022-08-18T15:34:03;25.12;43.36
67547;HTU21D;54381;53.516;49.424;2022-08-18T15:36:30;25.10;43.64
67547;HTU21D;54381;53.516;49.424;2022-08-18T15:38:58;25.05;43.92
67547;HTU21D;54381;53.516;49.424;2022-08-18T15:41:33;25.00;44.25
67547;HTU21D;54381;53.516;49.424;2022-08-18T15:44:01;24.97;44.47
67547;HTU21D;54381;53.516;49.424;2022-08-18T15:46:31;24.91;44.45
67547;HTU21D;54381;53.516;49.424;2022-08-18T15:48:58;24.86;44.77
67547;HTU21D;54381;53.516;49.424;2022-08-18T15:51:24;24.79;44.98
67547;HTU21D;54381;53.516;49.424;2022-08-18T15:53:50;24.76;44.82
67547;HTU21D;54381;53.516;49.424;2022-08-18T15:56:19;24.69;45.33
67547;HTU21D;54381;53.516;49.424;2022-08-18T15:58:45;24.62;45.61
67547;HTU21D;54381;53.516;49.424;2022-08-18T16:01:13;24.55;45.62
67547;HTU21D;54381;53.516;49.424;2022-08-18T16:03:39;24.51;45.97
67547;HTU21D;54381;53.516;49.424;2022-08-18T16:06:15;24.47;45.97
67547;HTU21D;54381;53.516;49.424;2022-08-18T16:08:42;24.42;45.89
67547;HTU21D;54381;53.516;49.424;2022-08-18T16:11:13;24.39;46.40
67547;HTU21D;54381;53.516;49.424;2022-08-18T16:13:40;24.35;46.44
67547;HTU21D;54381;53.516;49.424;2022-08-18T16:16:13;24.32;46.41
67547;HTU21D;54381;53.516;49.424;2022-08-18T16:18:41;24.28;46.58
67547;HTU21D;54381;53.516;49.424;2022-08-18T16:21:12;24.27;46.49
67547;HTU21D;54381;53.516;49.424;2022-08-18T16:23:41;24.24;46.57
67547;HTU21D;54381;53.516;49.424;2022-08-18T16:26:09;24.24;46.74
67547;HTU21D;54381;53.516;49.424;2022-08-18T16:28:40;24.14;46.66
67547;HTU21D;54381;53.516;49.424;2022-08-18T16:31:07;24.13;46.86
67547;HTU21D;54381;53.516;49.424;2022-08-18T16:33:34;24.05;46.96
67547;HTU21D;54381;53.516;49.424;2022-08-18T16:36:02;24.04;47.07
67547;HTU21D;54381;53.516;49.424;2022-08-18T16:38:28;24.05;48.31
67547;HTU21D;54381;53.516;49.424;2022-08-18T16:40:55;24.01;47.18
67547;HTU21D;54381;53.516;49.424;2022-08-18T16:43:22;23.95;47.48
67547;HTU21D;54381;53.516;49.424;2022-08-18T16:45:48;23.90;47.12
67547;HTU21D;54381;53.516;49.424;2022-08-18T16:48:16;23.87;47.31
67547;HTU21D;54381;53.516;49.424;2022-08-18T16:50:43;23.80;47.25
67547;HTU21D;54381;53.516;49.424;2022-08-18T16:53:10;23.79;47.79
67547;HTU21D;54381;53.516;49.424;2022-08-18T16:55:36;23.74;48.03
67547;HTU21D;54381;53.516;49.424;2022-08-18T16:58:03;23.73;47.47
67547;HTU21D;54381;53.516;49.424;2022-08-18T17:00:48;23.72;47.14
67547;HTU21D;54381;53.516;49.424;2022-08-18T17:03:33;23.57;47.44
67547;HTU21D;54381;53.516;49.424;2022-08-18T17:06:18;23.42;47.91
67547;HTU21D;54381;53.516;49.424;2022-08-18T17:08:44;23.39;48.28
67547;HTU21D;54381;53.516;49.424;2022-08-18T17:11:15;23.35;48.37
67547;HTU21D;54381;53.516;49.424;2022-08-18T17:13:42;23.31;48.08
67547;HTU21D;54381;53.516;49.424;2022-08-18T17:16:10;23.29;48.76
67547;HTU21D;54381;53.516;49.424;2022-08-18T17:18:37;23.30;47.52
67547;HTU21D;54381;53.516;49.424;2022-08-18T17:21:08;23.22;47.50
67547;HTU21D;54381;53.516;49.424;2022-08-18T17:23:35;23.16;47.76
67547;HTU21D;54381;53.516;49.424;2022-08-18T17:26:02;23.09;47.37
67547;HTU21D;54381;53.516;49.424;2022-08-18T17:28:43;23.05;47.30
67547;HTU21D;54381;53.516;49.424;2022-08-18T17:31:11;22.95;46.67
67547;HTU21D;54381;53.516;49.424;2022-08-18T17:33:39;22.91;47.22
67547;HTU21D;54381;53.516;49.424;2022-08-18T17:36:20;22.84;46.76
67547;HTU21D;54381;53.516;49.424;2022-08-18T17:38:54;22.81;46.19
67547;HTU21D;54381;53.516;49.424;2022-08-18T17:41:24;22.79;46.37
67547;HTU21D;54381;53.516;49.424;2022-08-18T17:43:51;22.73;46.09
67547;HTU21D;54381;53.516;49.424;2022-08-18T17:46:26;22.72;45.95
67547;HTU21D;54381;53.516;49.424;2022-08-18T17:49:11;22.66;46.76
67547;HTU21D;54381;53.516;49.424;2022-08-18T17:51:51;22.61;46.15
67547;HTU21D;54381;53.516;49.424;2022-08-18T17:54:23;22.52;46.98
67547;HTU21D;54381;53.516;49.424;2022-08-18T17:56:56;22.49;46.66
67547;HTU21D;54381;53.516;49.424;2022-08-18T17:59:33;22.42;46.98
67547;HTU21D;54381;53.516;49.424;2022-08-18T18:02:15;22.35;47.96
67547;HTU21D;54381;53.516;49.424;2022-08-18T18:04:45;22.31;46.78